Race profile

EDP Lisbon
Lisbon POR
20 Mar 2011
Road
Half Mara
Record quality course
Men: -59.83 sec (-2.83 sec/km)
Women: -81.08 sec (-3.84 sec/km)
Men: 838
Women: 768
Lisbon International

Results (men)

Finished Time Flags Given name Surname Alternate name Citizenship Birth date Prize money Actions
1 58:30 Zersenay Tadese ERI 08 Feb 1982
2 1:00:30 John Mwangangi Nzau KEN 01 Nov 1990
3 1:00:38 Silas Sang Kipngetich KEN 21 Aug 1978
4 1:00:43 Robert Kipchumba Kipkorir KEN 24 Feb 1984
5 1:00:49 Mike Kipruto Kigen Kaan Özbilen KEN 15 Jan 1986
6 1:01:50 Evans Cheruiyot Kiprop KEN 05 Oct 1982
7 1:01:51 Leonard Kipkoech Langat KEN 07 Aug 1990
8 1:02:41 Yacob Jarso Kintra ETH 05 Feb 1988
9 1:03:47 Abderrahim Bouramdhane MAR 01 Jan 1978
10 1:04:10 Solonei Rocha daSilva BRA 18 Apr 1992
11 1:04:18 Luis-Manuel Feiteira deJesus POR 21 Apr 1973
12 1:04:22 Sergio Silva POR 03 Apr 1983
13 1:04:32 Tiago Costa POR 08 Aug 1988
14 1:04:43 Valerijs Zolnerovics LAT 19 Apr 1985
15 1:04:52 Euclides Varela CPV 06 Apr 1982
16 1:04:53 Sergio-Celestino daSilva BRA 23 Sep 1984
17 1:05:13 Paulo-Jorge Gomes Caetano POR 15 May 1973
18 1:05:19 Ivan Galan Barcera ESP 04 Sep 1979
19 1:05:48 Helder Ornelas POR 06 May 1974
20 1:06:05 Jose Ramos POR 28 Jul 1968
21 1:06:10 Sergey Lukin RUS 03 Jan 1975
22 1:06:30 Hermano Ferreira POR 16 Nov 1982
23 1:07:08 Dickson Marwa Mkami TAN 09 Mar 1982
24 1:07:40 Mårten Boström FIN 03 Aug 1982
25 1:07:40 Gladson-Alberto Silva Barbosa BRA 15 Aug 1979
26 1:07:59 Antonio Sousa POR 26 Feb 1970
28 1:08:27 Simon Ayeko UGA 10 May 1987
41 1:08:56 João Marques POR 21 Dec 1969

Results (women)

Finished Time Flags Given name Surname Alternate name Citizenship Birth date Prize money Actions
1 1:08:28 Aberu Kebede Shewaye ETH 12 Sep 1986
2 1:08:33 Ana-Dulce Felix Ferreira POR 23 Oct 1982
3 1:08:41 Grace Momanyi Kwamboka KEN 13 Mar 1981
4 1:08:55 Pauline Njeri Kahenya KEN 28 Jul 1985
5 1:09:08 Ines Chenonge Chepkesis KEN 01 Feb 1982
6 1:09:50 Helena Kirop Loshanyang KEN 09 Sep 1976
7 1:10:40 Diana Chepkemoi Sigei KEN 14 Oct 1987
8 1:10:54 Rita Cheptoo Sitienei KEN 15 Feb 1981
9 1:13:49 Salina Kosgei Jebet KEN 16 Nov 1976
10 1:13:51 Marina Kovalova RUS 19 Sep 1984
11 1:13:52 Maria-Elena Espeso Gayte ESP 10 Oct 1972
12 1:14:03 Adriana-Cristina Aparecida daSilva BRA 22 Jul 1981
13 1:14:11 Paula Mayoral ESP
14 1:15:08 Birhane Adere Debela ETH 21 Jul 1973
15 1:15:34 Yevgenia Danilova RUS 10 Aug 1981
16 1:15:47 Monica Silva Maratona POR 25 Nov 1983
17 1:16:55 Doroteia Peixoto Alves POR 07 Oct 1983
18 1:16:59 Rosangela-Raimunda Farias daPereira BRA 10 Jan 1975
19 1:18:15 Johanna Kykyri FIN 10 Jul 1980
20 1:18:28 Claudia Pereira POR 20 Feb 1976
22 1:19:36 Sirlene Sousa dePinho BRA 18 Jan 1976